Time;durP1;ratioP1;P1;durP2;ratioP2;P2;SDS_P1;SDS_P2;PMS_P1;PMS_P2;Temp;Humidity;BMP_temperature;BMP_pressure;BME280_temperature;BME280_humidity;BME280_pressure;Samples;Min_cycle;Max_cycle;Signal;HPM_P1;HPM_P2
2021/12/17 00:04:57;;;;;;;;;52.25;42.25;;;;;;;;5022868;28;45387;-66
2021/12/17 00:07:24;;;;;;;;;54.50;44.25;;;;;;;;5022835;28;45518;-67
2021/12/17 00:09:50;;;;;;;;;60.75;46.50;;;;;;;;5003261;28;45975;-67
2021/12/17 00:12:16;;;;;;;;;57.50;44.75;;;;;;;;5023481;28;45304;-67
2021/12/17 00:14:43;;;;;;;;;58.00;45.25;;;;;;;;5023079;28;45263;-67
2021/12/17 00:17:12;;;;;;;;;65.75;47.25;;;;;;;;5022907;28;45347;-67
2021/12/17 00:49:21;;;;;;;;;58.00;44.75;;;;;;;;5021033;28;45280;-67
2021/12/17 00:54:29;;;;;;;;;60.25;47.75;;;;;;;;5022064;28;45743;-67
2021/12/17 00:56:55;;;;;;;;;59.50;45.75;;;;;;;;5022798;28;45253;-68
2021/12/17 00:59:22;;;;;;;;;60.50;48.75;;;;;;;;5021887;28;45469;-68
2021/12/17 01:01:48;;;;;;;;;63.75;49.00;;;;;;;;5022420;28;45380;-68
2021/12/17 01:04:14;;;;;;;;;61.00;47.75;;;;;;;;5004183;28;48135;-68
2021/12/17 01:06:39;;;;;;;;;58.00;43.25;;;;;;;;5022621;28;45359;-67
2021/12/17 01:09:05;;;;;;;;;54.75;42.75;;;;;;;;5021953;28;45549;-67
2021/12/17 01:11:30;;;;;;;;;63.00;48.75;;;;;;;;5022230;28;45720;-67
2021/12/17 01:13:55;;;;;;;;;55.25;43.00;;;;;;;;5023017;28;45240;-67
2021/12/17 01:16:21;;;;;;;;;58.75;49.00;;;;;;;;5021854;28;45517;-67
2021/12/17 01:39:06;;;;;;;;;56.00;44.50;;;;;;;;5018683;28;45501;-66
2021/12/17 01:40:49;;;;;;;;;59.50;46.25;;;;;;;;5001827;28;46014;-65
2021/12/17 01:42:55;;;;;;;;;51.50;40.75;;;;;;;;5016913;28;45248;-66
2021/12/17 01:45:26;;;;;;;;;50.50;42.00;;;;;;;;5017279;28;45387;-66
2021/12/17 01:47:51;;;;;;;;;56.25;40.25;;;;;;;;5016977;28;45304;-66
2021/12/17 01:56:03;;;;;;;;;57.75;43.50;;;;;;;;5017680;28;45489;-66
2021/12/17 02:01:14;;;;;;;;;48.75;41.00;;;;;;;;5019939;28;45798;-66
2021/12/17 02:03:39;;;;;;;;;52.50;41.50;;;;;;;;5023992;28;46231;-66
2021/12/17 02:06:05;;;;;;;;;53.00;44.25;;;;;;;;5004261;28;45469;-66
2021/12/17 02:08:31;;;;;;;;;55.75;44.75;;;;;;;;5025894;28;45375;-66
2021/12/17 02:30:15;;;;;;;;;53.75;43.00;;;;;;;;5024658;28;45389;-66
2021/12/17 02:32:41;;;;;;;;;61.25;47.75;;;;;;;;5023657;28;47173;-66
2021/12/17 02:37:34;;;;;;;;;58.00;43.75;;;;;;;;5024792;28;45370;-66
2021/12/17 02:47:56;;;;;;;;;57.50;44.25;;;;;;;;5019007;28;45426;-67
2021/12/17 02:50:21;;;;;;;;;57.75;41.75;;;;;;;;5000590;28;45474;-66
2021/12/17 02:52:47;;;;;;;;;37.50;30.00;;;;;;;;5024698;28;45309;-67
2021/12/17 02:55:13;;;;;;;;;19.00;11.50;;;;;;;;5023732;28;46559;-66
2021/12/17 02:57:39;;;;;;;;;59.25;44.75;;;;;;;;5023578;28;45365;-67
2021/12/17 03:00:06;;;;;;;;;57.75;43.00;;;;;;;;5024301;28;45482;-66
2021/12/17 03:02:32;;;;;;;;;47.00;35.50;;;;;;;;5024515;28;46523;-66
2021/12/17 03:04:58;;;;;;;;;56.75;40.75;;;;;;;;5023485;28;45376;-66
2021/12/17 03:07:23;;;;;;;;;60.75;44.25;;;;;;;;5006027;28;46101;-67
2021/12/17 03:10:04;;;;;;;;;53.75;42.25;;;;;;;;5024027;28;45288;-67
2021/12/17 03:12:38;;;;;;;;;55.25;40.25;;;;;;;;5023460;28;45307;-68
2021/12/17 03:15:29;;;;;;;;;59.25;45.75;;;;;;;;5023643;28;45379;-67
2021/12/17 03:25:45;;;;;;;;;58.25;44.00;;;;;;;;5023212;28;45493;-67
2021/12/17 03:28:11;;;;;;;;;61.50;45.25;;;;;;;;5024153;28;45428;-67
2021/12/17 03:30:36;;;;;;;;;59.25;44.75;;;;;;;;5023879;28;45721;-65
2021/12/17 03:33:02;;;;;;;;;37.25;30.25;;;;;;;;5024087;28;45657;-65
2021/12/17 03:35:27;;;;;;;;;59.75;46.75;;;;;;;;5022858;28;45510;-65
2021/12/17 03:37:53;;;;;;;;;60.25;47.25;;;;;;;;5024140;28;45311;-65
2021/12/17 03:40:20;;;;;;;;;59.00;46.75;;;;;;;;5023573;28;45481;-65
2021/12/17 03:42:48;;;;;;;;;56.25;44.00;;;;;;;;5024000;28;45351;-65
2021/12/17 03:45:15;;;;;;;;;55.50;42.75;;;;;;;;5022913;28;45423;-68
2021/12/17 03:47:40;;;;;;;;;49.00;41.75;;;;;;;;5022578;28;45248;-65
2021/12/17 03:50:05;;;;;;;;;59.25;45.00;;;;;;;;5002207;28;45302;-65
2021/12/17 03:52:30;;;;;;;;;57.50;43.75;;;;;;;;5023776;28;45455;-66
2021/12/17 03:54:56;;;;;;;;;59.00;44.75;;;;;;;;5022916;28;45340;-65
2021/12/17 03:57:21;;;;;;;;;58.00;44.50;;;;;;;;5023552;28;45579;-65
2021/12/17 03:59:47;;;;;;;;;57.25;45.50;;;;;;;;5004272;28;45340;-67
2021/12/17 04:02:12;;;;;;;;;56.75;45.25;;;;;;;;5023566;28;45358;-65
2021/12/17 04:04:37;;;;;;;;;59.25;48.00;;;;;;;;5004733;28;45519;-67
2021/12/17 04:07:03;;;;;;;;;54.50;43.75;;;;;;;;5023372;28;45445;-67
2021/12/17 04:09:30;;;;;;;;;61.00;43.00;;;;;;;;5005416;28;45543;-68
2021/12/17 04:11:55;;;;;;;;;63.00;49.00;;;;;;;;5023399;28;45272;-66
2021/12/17 04:14:22;;;;;;;;;62.75;44.00;;;;;;;;5004737;28;45399;-66
2021/12/17 04:16:47;;;;;;;;;55.00;42.75;;;;;;;;5023301;28;45295;-66
2021/12/17 04:19:13;;;;;;;;;58.25;45.00;;;;;;;;5023009;28;45208;-66
2021/12/17 04:21:38;;;;;;;;;63.50;44.00;;;;;;;;5001581;28;47927;-66
2021/12/17 04:24:03;;;;;;;;;57.25;43.50;;;;;;;;5014826;28;45208;-66
2021/12/17 04:26:28;;;;;;;;;51.00;41.25;;;;;;;;5020162;28;45348;-66
2021/12/17 04:28:54;;;;;;;;;56.25;44.00;;;;;;;;5016655;28;45320;-66
2021/12/17 04:31:24;;;;;;;;;42.75;39.25;;;;;;;;4998631;28;46988;-66
2021/12/17 04:33:49;;;;;;;;;42.75;32.25;;;;;;;;5022161;28;45403;-66
2021/12/17 04:36:20;;;;;;;;;51.25;42.75;;;;;;;;5021635;28;45441;-66
2021/12/17 04:38:46;;;;;;;;;49.50;40.25;;;;;;;;5023499;28;45335;-66
2021/12/17 04:46:35;;;;;;;;;52.25;39.00;;;;;;;;5022006;28;46020;-66
2021/12/17 04:57:33;;;;;;;;;52.50;36.25;;;;;;;;5020905;28;46049;-66
2021/12/17 05:00:03;;;;;;;;;54.75;42.00;;;;;;;;5022389;28;45450;-67
2021/12/17 05:02:29;;;;;;;;;55.75;40.75;;;;;;;;5021084;28;48392;-67
2021/12/17 05:04:55;;;;;;;;;46.25;40.00;;;;;;;;5021531;28;45352;-67
2021/12/17 05:07:22;;;;;;;;;50.50;38.50;;;;;;;;5022433;28;45526;-68
2021/12/17 05:10:01;;;;;;;;;47.75;40.75;;;;;;;;5022352;28;45522;-67
2021/12/17 05:23:06;;;;;;;;;53.00;39.00;;;;;;;;5022001;28;45979;-67
2021/12/17 05:25:31;;;;;;;;;52.75;41.25;;;;;;;;4997895;28;45345;-67
2021/12/17 05:28:00;;;;;;;;;59.75;44.50;;;;;;;;5020572;28;45253;-67
2021/12/17 05:30:27;;;;;;;;;58.75;42.50;;;;;;;;5021838;28;45461;-67
2021/12/17 05:32:52;;;;;;;;;47.00;38.25;;;;;;;;5020598;28;47599;-67
2021/12/17 05:35:17;;;;;;;;;49.25;38.25;;;;;;;;5022869;28;45517;-67
2021/12/17 05:37:42;;;;;;;;;58.25;42.00;;;;;;;;5025888;28;45390;-67
2021/12/17 05:40:08;;;;;;;;;49.00;35.50;;;;;;;;5024654;28;45530;-67
2021/12/17 05:42:33;;;;;;;;;51.00;40.25;;;;;;;;5025647;28;46303;-67
2021/12/17 05:45:07;;;;;;;;;48.50;37.25;;;;;;;;5024752;28;45478;-65
2021/12/17 05:47:33;;;;;;;;;45.00;39.50;;;;;;;;5024460;28;45472;-65
2021/12/17 05:49:58;;;;;;;;;43.25;36.50;;;;;;;;5006833;28;45498;-66
2021/12/17 05:52:23;;;;;;;;;50.25;39.75;;;;;;;;5025347;28;45410;-66
2021/12/17 05:54:48;;;;;;;;;48.75;39.00;;;;;;;;5024610;28;45691;-67
2021/12/17 05:57:13;;;;;;;;;40.25;34.75;;;;;;;;5023734;28;45370;-66
2021/12/17 05:59:39;;;;;;;;;46.50;39.75;;;;;;;;5024951;28;45613;-66
2021/12/17 06:02:09;;;;;;;;;47.00;38.75;;;;;;;;5024990;28;45520;-65
2021/12/17 06:04:34;;;;;;;;;46.25;39.25;;;;;;;;5023917;28;45478;-66
2021/12/17 06:07:00;;;;;;;;;45.75;37.75;;;;;;;;5024349;28;45445;-66
2021/12/17 06:09:25;;;;;;;;;46.25;39.25;;;;;;;;5024728;28;45116;-65
2021/12/17 06:11:50;;;;;;;;;41.50;35.50;;;;;;;;5024573;28;45313;-65
2021/12/17 06:14:15;;;;;;;;;42.00;37.00;;;;;;;;5023715;28;45529;-67
2021/12/17 06:16:40;;;;;;;;;48.25;36.25;;;;;;;;5024230;28;46329;-66
2021/12/17 06:19:06;;;;;;;;;43.25;36.25;;;;;;;;5023058;28;45462;-66
2021/12/17 06:21:31;;;;;;;;;48.00;38.00;;;;;;;;5023505;28;45348;-66
2021/12/17 06:23:56;;;;;;;;;51.25;36.75;;;;;;;;5024627;28;45382;-66
2021/12/17 06:26:21;;;;;;;;;40.75;34.00;;;;;;;;5022988;28;45383;-66
2021/12/17 06:28:50;;;;;;;;;50.00;38.75;;;;;;;;5025067;28;45381;-67
2021/12/17 06:31:15;;;;;;;;;50.00;36.75;;;;;;;;5023149;28;46169;-66
2021/12/17 06:33:40;;;;;;;;;47.00;38.00;;;;;;;;5024616;28;45220;-66
2021/12/17 06:36:06;;;;;;;;;44.50;37.25;;;;;;;;5023044;28;45477;-66
2021/12/17 06:38:31;;;;;;;;;41.50;36.25;;;;;;;;5025070;28;45268;-67
2021/12/17 06:40:58;;;;;;;;;54.00;39.00;;;;;;;;4999890;28;47169;-66
2021/12/17 06:43:29;;;;;;;;;51.50;42.75;;;;;;;;5024574;28;45213;-66
2021/12/17 06:46:02;;;;;;;;;44.25;34.00;;;;;;;;5023348;28;45483;-66
2021/12/17 06:48:30;;;;;;;;;53.00;40.00;;;;;;;;5024641;28;45292;-67
2021/12/17 07:07:07;;;;;;;;;45.25;39.00;;;;;;;;5023226;28;45453;-66
2021/12/17 07:31:47;;;;;;;;;57.25;40.75;;;;;;;;5010861;28;45196;-67
2021/12/17 07:35:56;;;;;;;;;37.00;33.00;;;;;;;;5013754;28;45434;-68
2021/12/17 07:41:16;;;;;;;;;28.75;26.00;;;;;;;;5008934;28;46105;-68
2021/12/17 07:43:52;;;;;;;;;54.75;39.25;;;;;;;;5021138;28;47326;-68
2021/12/17 07:46:18;;;;;;;;;43.50;38.25;;;;;;;;5021126;28;45389;-68
2021/12/17 07:48:43;;;;;;;;;45.75;36.50;;;;;;;;5022254;28;45375;-68
2021/12/17 07:51:09;;;;;;;;;51.50;42.00;;;;;;;;5021623;28;45537;-69
2021/12/17 07:53:35;;;;;;;;;40.50;34.00;;;;;;;;5022030;28;46591;-66
2021/12/17 07:56:02;;;;;;;;;44.00;36.25;;;;;;;;5021271;28;45325;-69
2021/12/17 07:58:28;;;;;;;;;48.75;39.00;;;;;;;;5020341;28;45268;-67
2021/12/17 08:00:53;;;;;;;;;47.00;37.75;;;;;;;;5021831;28;45184;-66
2021/12/17 08:03:18;;;;;;;;;48.50;37.50;;;;;;;;5020797;28;47424;-66
2021/12/17 08:05:43;;;;;;;;;52.75;37.50;;;;;;;;5022125;28;45229;-66
2021/12/17 08:08:09;;;;;;;;;47.00;37.50;;;;;;;;5022316;28;45330;-66
2021/12/17 08:10:34;;;;;;;;;49.00;36.50;;;;;;;;5022027;28;45526;-66
2021/12/17 08:13:00;;;;;;;;;41.00;34.75;;;;;;;;5021274;28;47091;-66
2021/12/17 08:15:32;;;;;;;;;38.50;35.00;;;;;;;;5003535;28;45440;-66
2021/12/17 08:26:05;;;;;;;;;39.25;37.75;;;;;;;;5021694;28;45312;-67
2021/12/17 08:28:51;;;;;;;;;43.00;35.00;;;;;;;;5013515;28;45331;-67
2021/12/17 08:31:16;;;;;;;;;40.25;30.75;;;;;;;;5021799;28;45517;-68
2021/12/17 08:33:41;;;;;;;;;50.25;39.00;;;;;;;;5022558;28;45488;-68
2021/12/17 08:36:07;;;;;;;;;42.25;35.75;;;;;;;;5020900;28;45315;-68
2021/12/17 08:38:32;;;;;;;;;49.00;39.50;;;;;;;;5021178;28;45478;-68
2021/12/17 08:40:59;;;;;;;;;42.00;34.75;;;;;;;;5021933;28;45413;-68
2021/12/17 08:43:25;;;;;;;;;43.25;37.75;;;;;;;;5022313;28;45328;-68
2021/12/17 08:45:50;;;;;;;;;50.00;36.50;;;;;;;;5003145;28;45443;-68
2021/12/17 08:48:15;;;;;;;;;44.25;34.50;;;;;;;;5022296;28;45470;-68
2021/12/17 08:50:40;;;;;;;;;43.00;36.25;;;;;;;;5021542;28;45447;-68
2021/12/17 08:53:06;;;;;;;;;42.75;35.00;;;;;;;;5022156;28;46404;-68
2021/12/17 08:55:31;;;;;;;;;40.50;34.50;;;;;;;;5020910;28;45399;-68
2021/12/17 08:57:56;;;;;;;;;40.00;34.00;;;;;;;;5022486;28;45485;-69
2021/12/17 09:00:22;;;;;;;;;41.75;33.25;;;;;;;;5022077;28;45221;-68
2021/12/17 09:02:47;;;;;;;;;36.00;30.25;;;;;;;;5020924;28;47191;-68
2021/12/17 09:05:12;;;;;;;;;41.75;34.75;;;;;;;;5021080;28;45362;-68
2021/12/17 09:07:37;;;;;;;;;44.50;34.50;;;;;;;;5021382;28;45400;-68
2021/12/17 09:10:05;;;;;;;;;48.75;35.50;;;;;;;;5020787;28;45568;-67
2021/12/17 09:12:31;;;;;;;;;34.50;32.75;;;;;;;;5021024;28;47283;-67
2021/12/17 09:14:56;;;;;;;;;44.50;36.50;;;;;;;;5020125;28;45706;-68
2021/12/17 09:17:24;;;;;;;;;36.00;34.50;;;;;;;;5013039;28;45402;-68
2021/12/17 09:19:49;;;;;;;;;34.00;29.50;;;;;;;;5021667;28;45556;-67
2021/12/17 09:22:14;;;;;;;;;27.00;22.25;;;;;;;;5022039;28;45544;-67
2021/12/17 09:24:40;;;;;;;;;28.50;25.25;;;;;;;;5021026;28;45429;-66
2021/12/17 09:27:05;;;;;;;;;44.50;32.25;;;;;;;;5013852;28;45310;-66
2021/12/17 09:29:30;;;;;;;;;49.75;36.25;;;;;;;;5019146;28;45377;-66
2021/12/17 09:31:56;;;;;;;;;32.75;28.50;;;;;;;;5021990;28;45505;-67
2021/12/17 09:34:22;;;;;;;;;38.50;34.25;;;;;;;;5021303;28;45545;-67
2021/12/17 09:36:47;;;;;;;;;38.50;33.50;;;;;;;;5021560;28;45227;-67
2021/12/17 09:39:12;;;;;;;;;36.75;28.50;;;;;;;;5021755;28;45450;-67
2021/12/17 09:41:40;;;;;;;;;32.00;26.33;;;;;;;;5003748;28;46440;-67
2021/12/17 09:44:05;;;;;;;;;33.25;30.25;;;;;;;;5021565;28;45316;-69
2021/12/17 09:46:30;;;;;;;;;38.75;32.50;;;;;;;;5020891;28;45624;-68
2021/12/17 09:48:57;;;;;;;;;41.00;32.25;;;;;;;;5022625;28;45323;-68
2021/12/17 09:51:22;;;;;;;;;33.00;30.75;;;;;;;;5020660;28;46417;-68
2021/12/17 09:53:48;;;;;;;;;45.00;35.00;;;;;;;;5020654;28;45379;-69
2021/12/17 09:56:14;;;;;;;;;46.25;37.00;;;;;;;;5020904;28;45498;-68
2021/12/17 09:58:39;;;;;;;;;48.25;36.25;;;;;;;;5021997;28;45641;-68
2021/12/17 10:01:04;;;;;;;;;43.50;34.50;;;;;;;;5020097;28;45365;-68
2021/12/17 10:03:30;;;;;;;;;39.50;34.25;;;;;;;;5019231;28;45393;-68
2021/12/17 10:05:55;;;;;;;;;42.25;33.50;;;;;;;;5020382;28;45801;-67
2021/12/17 10:08:23;;;;;;;;;51.00;37.00;;;;;;;;5022060;28;45362;-66
2021/12/17 10:10:57;;;;;;;;;40.50;32.25;;;;;;;;5020351;28;46418;-69
2021/12/17 10:13:30;;;;;;;;;35.75;34.25;;;;;;;;5021074;28;45289;-67
2021/12/17 10:15:57;;;;;;;;;52.00;36.25;;;;;;;;5020389;28;45351;-69
2021/12/17 10:18:31;;;;;;;;;44.00;35.75;;;;;;;;5021386;28;45423;-67
2021/12/17 10:20:58;;;;;;;;;41.75;35.00;;;;;;;;5021630;28;45514;-68
2021/12/17 10:23:24;;;;;;;;;42.25;35.50;;;;;;;;5006808;28;46020;-68
2021/12/17 10:25:49;;;;;;;;;35.50;31.25;;;;;;;;4998639;28;45463;-68
2021/12/17 10:28:15;;;;;;;;;46.00;36.25;;;;;;;;5015141;28;45228;-68
2021/12/17 10:30:42;;;;;;;;;38.75;32.75;;;;;;;;5005758;28;47022;-68
2021/12/17 10:33:09;;;;;;;;;47.25;37.75;;;;;;;;5023572;28;45411;-69
2021/12/17 10:35:35;;;;;;;;;41.75;33.75;;;;;;;;5022878;28;45435;-68
2021/12/17 10:38:04;;;;;;;;;38.50;32.25;;;;;;;;5015145;28;45558;-68
2021/12/17 10:40:43;;;;;;;;;40.75;36.75;;;;;;;;5002418;28;45991;-69
2021/12/17 10:43:20;;;;;;;;;46.00;37.75;;;;;;;;5016883;28;45434;-68
2021/12/17 10:45:58;;;;;;;;;41.50;35.00;;;;;;;;4999791;28;45491;-68
2021/12/17 10:50:54;;;;;;;;;39.75;36.75;;;;;;;;5023041;28;45419;-68
2021/12/17 10:53:22;;;;;;;;;51.00;37.00;;;;;;;;5024042;28;45491;-68
2021/12/17 10:55:48;;;;;;;;;46.25;35.25;;;;;;;;5002023;28;45524;-68
2021/12/17 10:58:13;;;;;;;;;52.25;41.25;;;;;;;;5019477;28;45283;-68
2021/12/17 11:00:59;;;;;;;;;52.00;41.25;;;;;;;;5002094;28;47912;-68
2021/12/17 11:03:25;;;;;;;;;56.25;44.75;;;;;;;;5022106;28;45329;-68
2021/12/17 11:05:50;;;;;;;;;72.00;55.50;;;;;;;;5022985;28;45252;-68
2021/12/17 11:08:20;;;;;;;;;61.75;49.00;;;;;;;;5023080;28;45568;-69
2021/12/17 11:10:56;;;;;;;;;58.00;45.75;;;;;;;;5023214;28;46620;-68
2021/12/17 11:13:21;;;;;;;;;40.00;34.75;;;;;;;;5025033;28;45429;-66
2021/12/17 11:15:47;;;;;;;;;35.50;30.50;;;;;;;;5025573;28;45141;-66
2021/12/17 11:18:12;;;;;;;;;38.75;34.25;;;;;;;;5006936;28;45206;-68
2021/12/17 11:20:39;;;;;;;;;62.75;49.50;;;;;;;;5022719;28;45609;-68
2021/12/17 11:23:08;;;;;;;;;46.00;39.25;;;;;;;;5023668;28;45790;-67
2021/12/17 11:25:35;;;;;;;;;44.00;35.75;;;;;;;;5023559;28;45451;-68
2021/12/17 11:28:00;;;;;;;;;38.75;30.50;;;;;;;;5024426;28;45336;-67
2021/12/17 11:30:28;;;;;;;;;36.75;34.25;;;;;;;;5003138;28;48146;-67
2021/12/17 11:32:54;;;;;;;;;42.00;36.50;;;;;;;;5023909;28;45300;-67
2021/12/17 11:35:21;;;;;;;;;36.25;31.00;;;;;;;;5023498;28;45256;-66
2021/12/17 11:37:47;;;;;;;;;40.25;35.00;;;;;;;;5006245;28;45534;-69
2021/12/17 11:40:22;;;;;;;;;38.75;31.75;;;;;;;;4998975;28;48102;-68
2021/12/17 11:42:59;;;;;;;;;44.75;35.00;;;;;;;;5005692;28;45642;-68
2021/12/17 11:45:26;;;;;;;;;46.25;36.00;;;;;;;;4998798;28;45539;-68
2021/12/17 11:47:53;;;;;;;;;45.75;35.50;;;;;;;;5023344;28;45342;-68
2021/12/17 11:50:18;;;;;;;;;45.75;34.00;;;;;;;;5022173;28;45621;-68
2021/12/17 11:52:45;;;;;;;;;32.00;29.50;;;;;;;;5023687;28;45228;-68
2021/12/17 11:55:28;;;;;;;;;44.00;35.25;;;;;;;;5022450;28;45317;-69
2021/12/17 11:57:57;;;;;;;;;39.75;36.00;;;;;;;;5006036;28;45552;-68
2021/12/17 12:00:24;;;;;;;;;38.75;28.25;;;;;;;;5001728;28;47288;-68
2021/12/17 12:02:50;;;;;;;;;51.25;40.25;;;;;;;;5023341;28;45472;-68
2021/12/17 12:05:33;;;;;;;;;64.25;48.50;;;;;;;;5022200;28;45435;-69
2021/12/17 12:08:39;;;;;;;;;58.50;47.75;;;;;;;;5022374;28;45569;-68
2021/12/17 12:11:06;;;;;;;;;39.25;35.50;;;;;;;;4971484;28;47514;-68
2021/12/17 12:13:35;;;;;;;;;37.75;33.25;;;;;;;;5004559;28;45326;-68
2021/12/17 12:16:02;;;;;;;;;34.75;32.75;;;;;;;;5022138;28;45376;-68
2021/12/17 12:18:37;;;;;;;;;45.00;34.50;;;;;;;;5014210;28;45440;-68
2021/12/17 12:21:03;;;;;;;;;31.50;27.75;;;;;;;;5021340;28;45394;-70
2021/12/17 12:23:28;;;;;;;;;40.25;34.75;;;;;;;;5022748;28;45336;-68
2021/12/17 12:26:02;;;;;;;;;38.25;33.25;;;;;;;;4998187;28;45585;-68
2021/12/17 12:28:56;;;;;;;;;35.25;34.00;;;;;;;;5021502;28;45680;-68
2021/12/17 12:31:25;;;;;;;;;32.33;26.67;;;;;;;;4997808;28;47178;-68
2021/12/17 12:34:06;;;;;;;;;37.67;31.00;;;;;;;;5021139;28;45736;-68
2021/12/17 12:36:50;;;;;;;;;35.67;31.00;;;;;;;;4997514;28;45546;-68
2021/12/17 12:39:15;;;;;;;;;35.67;28.67;;;;;;;;5022024;28;45229;-68
2021/12/17 12:42:00;;;;;;;;;43.50;35.00;;;;;;;;5022513;28;45690;-68
2021/12/17 12:44:44;;;;;;;;;38.67;27.67;;;;;;;;5001361;28;45490;-69
2021/12/17 12:47:09;;;;;;;;;32.67;26.33;;;;;;;;5018737;28;45234;-69
2021/12/17 12:49:43;;;;;;;;;26.33;23.33;;;;;;;;5004540;28;45477;-68
2021/12/17 12:52:27;;;;;;;;;37.33;31.67;;;;;;;;5009228;28;47695;-68
2021/12/17 12:54:54;;;;;;;;;28.00;27.00;;;;;;;;5002399;28;45189;-69
2021/12/17 12:57:23;;;;;;;;;40.75;33.75;;;;;;;;5022352;28;45308;-69
2021/12/17 12:59:50;;;;;;;;;31.00;27.25;;;;;;;;5003229;28;45407;-67
2021/12/17 13:02:15;;;;;;;;;30.00;30.00;;;;;;;;5022143;28;45407;-67
2021/12/17 13:04:41;;;;;;;;;35.67;30.67;;;;;;;;5021050;28;45541;-68
2021/12/17 13:07:06;;;;;;;;;33.67;31.67;;;;;;;;5022346;28;45525;-68
2021/12/17 13:09:31;;;;;;;;;25.67;24.33;;;;;;;;5022252;28;45474;-68
2021/12/17 13:11:56;;;;;;;;;34.33;31.00;;;;;;;;5022183;28;46473;-68
2021/12/17 13:14:25;;;;;;;;;35.67;29.00;;;;;;;;5020272;28;45847;-68
2021/12/17 13:17:16;;;;;;;;;25.33;25.33;;;;;;;;5022141;28;45466;-69
2021/12/17 13:22:52;;;;;;;;;26.67;25.33;;;;;;;;5020725;28;45423;-68
2021/12/17 13:25:24;;;;;;;;;41.50;34.00;;;;;;;;5021152;28;45347;-69
2021/12/17 13:27:55;;;;;;;;;25.00;25.00;;;;;;;;5012549;28;45381;-69
2021/12/17 13:30:24;;;;;;;;;39.67;32.00;;;;;;;;5003659;28;45591;-69
2021/12/17 13:32:50;;;;;;;;;30.50;26.25;;;;;;;;5020772;28;48142;-69
2021/12/17 13:35:17;;;;;;;;;28.00;26.00;;;;;;;;5020782;28;45197;-69
2021/12/17 13:37:42;;;;;;;;;36.33;31.00;;;;;;;;5020471;28;45356;-68
2021/12/17 13:40:09;;;;;;;;;34.00;29.50;;;;;;;;5020390;28;45482;-68
2021/12/17 13:42:38;;;;;;;;;37.00;32.50;;;;;;;;5020650;28;47345;-68
2021/12/17 13:45:14;;;;;;;;;31.75;27.00;;;;;;;;5020966;28;45461;-68
2021/12/17 13:47:45;;;;;;;;;27.67;26.33;;;;;;;;5021728;28;45304;-69
2021/12/17 13:50:11;;;;;;;;;38.67;30.33;;;;;;;;4999231;28;45878;-68
2021/12/17 13:52:38;;;;;;;;;30.33;26.67;;;;;;;;5021832;28;45311;-68
2021/12/17 13:55:06;;;;;;;;;35.67;28.00;;;;;;;;5020714;28;45213;-68
2021/12/17 13:57:32;;;;;;;;;31.67;26.00;;;;;;;;5025231;28;45426;-68
2021/12/17 14:00:03;;;;;;;;;33.33;26.00;;;;;;;;5024828;28;45462;-68
2021/12/17 14:02:32;;;;;;;;;33.00;26.67;;;;;;;;5005857;28;47438;-68
2021/12/17 14:04:59;;;;;;;;;36.67;28.00;;;;;;;;5004694;28;45833;-68
2021/12/17 14:07:29;;;;;;;;;33.33;30.00;;;;;;;;5025223;28;45407;-68
2021/12/17 14:09:56;;;;;;;;;28.00;27.67;;;;;;;;5023000;28;45257;-68
2021/12/17 14:12:33;;;;;;;;;35.67;28.33;;;;;;;;4990595;28;47452;-68
2021/12/17 14:14:59;;;;;;;;;35.67;31.67;;;;;;;;5002404;28;45547;-68
2021/12/17 14:17:31;;;;;;;;;27.33;25.00;;;;;;;;5005792;28;45415;-68
2021/12/17 14:20:00;;;;;;;;;33.67;27.33;;;;;;;;5003956;28;45477;-68
2021/12/17 14:22:28;;;;;;;;;32.33;25.33;;;;;;;;5005005;28;46146;-68
2021/12/17 14:24:54;;;;;;;;;32.33;26.00;;;;;;;;5006516;28;45515;-68
2021/12/17 14:27:19;;;;;;;;;35.67;26.33;;;;;;;;5006465;28;46363;-68
2021/12/17 14:29:44;;;;;;;;;31.00;25.33;;;;;;;;5008665;28;45509;-68
2021/12/17 14:32:19;;;;;;;;;28.00;24.33;;;;;;;;5005773;28;46076;-66
2021/12/17 14:34:44;;;;;;;;;19.67;18.67;;;;;;;;5006513;28;45461;-67
2021/12/17 14:37:10;;;;;;;;;36.00;27.33;;;;;;;;5004390;28;45459;-67
2021/12/17 14:39:37;;;;;;;;;37.00;25.00;;;;;;;;5012338;28;45632;-66
2021/12/17 14:42:05;;;;;;;;;31.00;25.00;;;;;;;;5006290;28;45456;-67
2021/12/17 14:47:14;;;;;;;;;25.33;21.00;;;;;;;;5005726;28;45391;-67
2021/12/17 15:00:30;;;;;;;;;34.67;31.33;;;;;;;;5008238;28;45574;-67
2021/12/17 15:05:25;;;;;;;;;30.33;24.67;;;;;;;;5007789;28;45562;-67
2021/12/17 15:07:50;;;;;;;;;30.67;24.67;;;;;;;;4986665;28;45524;-67
2021/12/17 15:10:18;;;;;;;;;28.67;24.33;;;;;;;;5009681;28;45400;-68
2021/12/17 15:12:43;;;;;;;;;28.00;24.67;;;;;;;;5001635;28;47199;-67
2021/12/17 15:15:08;;;;;;;;;30.00;22.67;;;;;;;;5005145;28;45404;-67
2021/12/17 15:17:34;;;;;;;;;31.00;25.00;;;;;;;;5006581;28;45359;-69
2021/12/17 15:19:59;;;;;;;;;27.00;26.75;;;;;;;;5001186;28;45429;-67
2021/12/17 15:22:25;;;;;;;;;25.33;24.00;;;;;;;;4998622;28;47176;-67
2021/12/17 15:24:50;;;;;;;;;25.67;20.00;;;;;;;;5009805;28;45340;-67
2021/12/17 15:27:15;;;;;;;;;24.33;22.33;;;;;;;;5005124;28;45399;-67
2021/12/17 15:29:40;;;;;;;;;28.00;22.33;;;;;;;;5023140;28;45431;-67
2021/12/17 15:32:06;;;;;;;;;30.33;27.33;;;;;;;;5022556;28;45583;-67
2021/12/17 15:34:31;;;;;;;;;21.67;18.00;;;;;;;;5022218;28;45157;-67
2021/12/17 15:36:58;;;;;;;;;25.00;21.67;;;;;;;;5023338;28;45265;-67
2021/12/17 15:39:26;;;;;;;;;22.33;19.67;;;;;;;;5021992;28;45479;-67
2021/12/17 15:41:51;;;;;;;;;28.33;22.00;;;;;;;;5022555;28;45378;-67
2021/12/17 15:44:16;;;;;;;;;26.33;25.00;;;;;;;;5021010;28;45325;-67
2021/12/17 15:46:41;;;;;;;;;23.00;21.67;;;;;;;;5022743;28;45491;-67
2021/12/17 15:49:07;;;;;;;;;26.00;20.33;;;;;;;;5022905;28;45358;-67
2021/12/17 15:51:34;;;;;;;;;25.33;20.67;;;;;;;;5021787;28;46309;-67
2021/12/17 15:53:59;;;;;;;;;30.33;23.00;;;;;;;;5022969;28;45380;-68
2021/12/17 15:56:25;;;;;;;;;24.33;23.00;;;;;;;;5021775;28;45394;-67
2021/12/17 15:58:50;;;;;;;;;27.67;24.00;;;;;;;;5023310;28;45577;-68
2021/12/17 16:01:15;;;;;;;;;21.00;17.67;;;;;;;;5018729;28;45542;-67
2021/12/17 16:03:42;;;;;;;;;26.33;25.00;;;;;;;;5021430;28;45443;-67
2021/12/17 16:06:08;;;;;;;;;23.67;21.00;;;;;;;;5003079;28;45471;-67
2021/12/17 16:08:37;;;;;;;;;24.33;23.67;;;;;;;;5020302;28;45389;-67
2021/12/17 16:22:01;;;;;;;;;25.00;23.00;;;;;;;;5022876;28;45537;-67
2021/12/17 16:24:26;;;;;;;;;25.33;25.33;;;;;;;;5022158;28;45334;-67
2021/12/17 16:26:54;;;;;;;;;29.00;25.33;;;;;;;;5001518;28;45325;-67
2021/12/17 16:29:19;;;;;;;;;20.00;18.33;;;;;;;;5018864;28;45490;-67
2021/12/17 16:31:45;;;;;;;;;24.67;20.67;;;;;;;;5021493;28;46203;-68
2021/12/17 16:34:11;;;;;;;;;41.33;32.67;;;;;;;;5021068;28;45714;-68
2021/12/17 16:36:38;;;;;;;;;31.67;24.67;;;;;;;;5016267;28;45320;-68
2021/12/17 16:39:04;;;;;;;;;32.33;31.00;;;;;;;;5022460;28;45313;-68
2021/12/17 16:41:29;;;;;;;;;29.33;26.00;;;;;;;;5018515;28;45627;-68
2021/12/17 16:44:04;;;;;;;;;33.67;28.00;;;;;;;;5017465;28;45275;-68
2021/12/17 16:49:14;;;;;;;;;40.25;31.00;;;;;;;;5020806;28;45368;-68
2021/12/17 16:51:40;;;;;;;;;35.33;27.33;;;;;;;;5008035;28;47444;-68
2021/12/17 16:54:06;;;;;;;;;32.33;27.00;;;;;;;;5021683;28;45350;-67
2021/12/17 16:56:32;;;;;;;;;30.33;28.33;;;;;;;;5021287;28;45315;-68
2021/12/17 16:58:57;;;;;;;;;35.67;27.67;;;;;;;;5023358;28;45387;-68
2021/12/17 17:01:22;;;;;;;;;40.67;30.00;;;;;;;;5021284;28;45346;-68
2021/12/17 17:03:48;;;;;;;;;40.00;33.33;;;;;;;;5022271;28;45328;-68
2021/12/17 17:06:14;;;;;;;;;36.33;26.33;;;;;;;;5021199;28;45686;-68
2021/12/17 17:08:39;;;;;;;;;45.67;33.00;;;;;;;;5021279;28;45372;-68
2021/12/17 17:11:05;;;;;;;;;37.00;28.67;;;;;;;;5021186;28;46286;-67
2021/12/17 17:13:31;;;;;;;;;35.00;30.33;;;;;;;;5022166;28;45352;-67
2021/12/17 17:15:59;;;;;;;;;31.67;25.67;;;;;;;;5020592;28;45412;-67
2021/12/17 17:18:24;;;;;;;;;33.67;30.33;;;;;;;;5020200;28;45633;-67
2021/12/17 17:20:50;;;;;;;;;34.33;30.00;;;;;;;;5020298;28;45601;-69
2021/12/17 17:23:15;;;;;;;;;37.67;31.67;;;;;;;;5021015;28;45424;-70
2021/12/17 17:25:40;;;;;;;;;40.25;30.50;;;;;;;;5002836;28;45358;-67
2021/12/17 17:28:06;;;;;;;;;31.33;27.67;;;;;;;;5003679;28;45441;-68
2021/12/17 17:30:33;;;;;;;;;32.25;29.25;;;;;;;;5021710;28;45410;-68
2021/12/17 17:32:58;;;;;;;;;29.00;25.25;;;;;;;;5025213;28;45452;-68
2021/12/17 17:35:23;;;;;;;;;32.75;32.75;;;;;;;;5020941;28;45418;-69
2021/12/17 17:37:49;;;;;;;;;37.00;30.33;;;;;;;;5023797;28;45587;-68
2021/12/17 17:40:14;;;;;;;;;43.25;36.75;;;;;;;;5023153;28;45418;-68
2021/12/17 17:42:39;;;;;;;;;36.67;33.33;;;;;;;;5024306;28;45430;-68
2021/12/17 17:45:05;;;;;;;;;39.50;32.75;;;;;;;;5023163;28;45435;-68
2021/12/17 17:47:30;;;;;;;;;43.00;36.00;;;;;;;;5026034;28;45415;-68
2021/12/17 17:49:56;;;;;;;;;38.75;33.25;;;;;;;;5024460;28;45434;-68